sensor_id;sensor_type;location;lat;lon;timestamp;P1;durP1;ratioP1;P2;durP2;ratioP2
1296;SDS011;641;48.492;9.184;2022-11-21T01:10:45;5.20;;;0.70;;
1296;SDS011;641;48.492;9.184;2022-11-21T01:13:14;6.10;;;0.70;;
1296;SDS011;641;48.492;9.184;2022-11-21T01:15:41;6.43;;;0.77;;
1296;SDS011;641;48.492;9.184;2022-11-21T01:18:10;6.10;;;1.10;;
1296;SDS011;641;48.492;9.184;2022-11-21T01:20:39;6.20;;;0.80;;
1296;SDS011;641;48.492;9.184;2022-11-21T01:23:05;6.13;;;1.00;;
1296;SDS011;641;48.492;9.184;2022-11-21T01:25:34;5.30;;;0.60;;
1296;SDS011;641;48.492;9.184;2022-11-21T01:28:00;6.60;;;1.30;;
1296;SDS011;641;48.492;9.184;2022-11-21T01:30:25;6.70;;;0.90;;
1296;SDS011;641;48.492;9.184;2022-11-21T01:32:51;6.03;;;0.80;;
1296;SDS011;641;48.492;9.184;2022-11-21T01:35:17;10.57;;;1.30;;
1296;SDS011;641;48.492;9.184;2022-11-21T01:37:46;8.50;;;0.80;;
1296;SDS011;641;48.492;9.184;2022-11-21T01:40:13;6.13;;;0.80;;
1296;SDS011;641;48.492;9.184;2022-11-21T01:43:00;7.07;;;0.80;;
1296;SDS011;641;48.492;9.184;2022-11-21T01:48:21;11.07;;;1.03;;
1296;SDS011;641;48.492;9.184;2022-11-21T01:57:03;5.23;;;0.70;;
1296;SDS011;641;48.492;9.184;2022-11-21T01:59:32;6.70;;;0.83;;
1296;SDS011;641;48.492;9.184;2022-11-21T02:02:21;6.73;;;1.00;;
1296;SDS011;641;48.492;9.184;2022-11-21T02:04:49;5.87;;;1.00;;
1296;SDS011;641;48.492;9.184;2022-11-21T02:07:17;7.67;;;0.87;;
1296;SDS011;641;48.492;9.184;2022-11-21T02:09:45;5.47;;;0.80;;
1296;SDS011;641;48.492;9.184;2022-11-21T02:12:17;6.47;;;1.20;;
1296;SDS011;641;48.492;9.184;2022-11-21T02:14:48;9.90;;;1.23;;
1296;SDS011;641;48.492;9.184;2022-11-21T02:17:17;8.60;;;0.97;;
1296;SDS011;641;48.492;9.184;2022-11-21T02:22:31;7.77;;;1.20;;
1296;SDS011;641;48.492;9.184;2022-11-21T02:25:17;6.57;;;0.90;;
1296;SDS011;641;48.492;9.184;2022-11-21T02:27:44;6.87;;;0.80;;
1296;SDS011;641;48.492;9.184;2022-11-21T02:30:12;5.60;;;0.90;;
1296;SDS011;641;48.492;9.184;2022-11-21T02:32:41;15.40;;;1.43;;
1296;SDS011;641;48.492;9.184;2022-11-21T02:35:11;8.00;;;1.13;;
1296;SDS011;641;48.492;9.184;2022-11-21T02:37:38;6.53;;;1.00;;
1296;SDS011;641;48.492;9.184;2022-11-21T02:40:13;6.30;;;0.73;;
1296;SDS011;641;48.492;9.184;2022-11-21T02:42:52;6.60;;;1.00;;
1296;SDS011;641;48.492;9.184;2022-11-21T02:45:25;8.33;;;1.03;;
1296;SDS011;641;48.492;9.184;2022-11-21T02:47:54;8.27;;;0.90;;
1296;SDS011;641;48.492;9.184;2022-11-21T02:50:27;6.23;;;0.70;;
1296;SDS011;641;48.492;9.184;2022-11-21T02:52:54;6.10;;;1.10;;
1296;SDS011;641;48.492;9.184;2022-11-21T02:55:21;7.43;;;0.97;;
1296;SDS011;641;48.492;9.184;2022-11-21T02:57:47;8.27;;;1.63;;
1296;SDS011;641;48.492;9.184;2022-11-21T03:00:13;6.37;;;0.90;;
1296;SDS011;641;48.492;9.184;2022-11-21T03:02:39;5.67;;;0.83;;
1296;SDS011;641;48.492;9.184;2022-11-21T03:05:07;8.70;;;1.03;;
1296;SDS011;641;48.492;9.184;2022-11-21T03:07:34;6.23;;;0.67;;
1296;SDS011;641;48.492;9.184;2022-11-21T03:09:59;6.20;;;0.70;;
1296;SDS011;641;48.492;9.184;2022-11-21T03:12:25;6.10;;;0.70;;
1296;SDS011;641;48.492;9.184;2022-11-21T03:14:56;5.90;;;0.90;;
1296;SDS011;641;48.492;9.184;2022-11-21T03:17:25;4.90;;;0.50;;
1296;SDS011;641;48.492;9.184;2022-11-21T03:19:51;5.00;;;0.47;;
1296;SDS011;641;48.492;9.184;2022-11-21T03:22:17;5.77;;;0.53;;
1296;SDS011;641;48.492;9.184;2022-11-21T03:24:42;5.77;;;0.60;;
1296;SDS011;641;48.492;9.184;2022-11-21T03:27:08;6.70;;;0.70;;
1296;SDS011;641;48.492;9.184;2022-11-21T03:29:34;6.10;;;0.70;;
1296;SDS011;641;48.492;9.184;2022-11-21T03:31:59;5.93;;;0.40;;
1296;SDS011;641;48.492;9.184;2022-11-21T03:34:25;5.57;;;0.67;;
1296;SDS011;641;48.492;9.184;2022-11-21T03:36:51;6.57;;;0.70;;
1296;SDS011;641;48.492;9.184;2022-11-21T03:39:16;5.63;;;0.40;;
1296;SDS011;641;48.492;9.184;2022-11-21T03:41:42;5.70;;;0.60;;
1296;SDS011;641;48.492;9.184;2022-11-21T03:44:08;5.73;;;0.60;;
1296;SDS011;641;48.492;9.184;2022-11-21T03:46:37;5.33;;;0.57;;
1296;SDS011;641;48.492;9.184;2022-11-21T03:49:04;4.90;;;0.47;;
1296;SDS011;641;48.492;9.184;2022-11-21T03:51:30;5.23;;;0.50;;
1296;SDS011;641;48.492;9.184;2022-11-21T03:53:57;5.47;;;0.57;;
1296;SDS011;641;48.492;9.184;2022-11-21T03:56:22;5.10;;;0.40;;
1296;SDS011;641;48.492;9.184;2022-11-21T03:58:48;7.33;;;0.60;;
1296;SDS011;641;48.492;9.184;2022-11-21T04:01:14;5.53;;;0.40;;
1296;SDS011;641;48.492;9.184;2022-11-21T04:03:40;4.90;;;0.60;;
1296;SDS011;641;48.492;9.184;2022-11-21T04:06:07;5.10;;;0.40;;
1296;SDS011;641;48.492;9.184;2022-11-21T04:08:33;6.07;;;0.50;;
1296;SDS011;641;48.492;9.184;2022-11-21T04:10:59;5.00;;;0.60;;
1296;SDS011;641;48.492;9.184;2022-11-21T04:13:25;5.77;;;0.50;;
1296;SDS011;641;48.492;9.184;2022-11-21T04:15:50;5.20;;;0.50;;
1296;SDS011;641;48.492;9.184;2022-11-21T04:18:16;5.43;;;0.87;;
1296;SDS011;641;48.492;9.184;2022-11-21T04:20:42;5.37;;;0.50;;
1296;SDS011;641;48.492;9.184;2022-11-21T04:23:08;4.70;;;0.40;;
1296;SDS011;641;48.492;9.184;2022-11-21T04:25:34;5.00;;;0.50;;
1296;SDS011;641;48.492;9.184;2022-11-21T04:28:00;4.67;;;0.40;;
1296;SDS011;641;48.492;9.184;2022-11-21T04:30:26;4.70;;;0.30;;
1296;SDS011;641;48.492;9.184;2022-11-21T04:32:53;4.70;;;0.40;;
1296;SDS011;641;48.492;9.184;2022-11-21T04:35:19;4.60;;;0.27;;
1296;SDS011;641;48.492;9.184;2022-11-21T04:37:46;4.70;;;0.33;;
1296;SDS011;641;48.492;9.184;2022-11-21T04:40:12;4.67;;;0.33;;
1296;SDS011;641;48.492;9.184;2022-11-21T04:42:44;4.70;;;0.30;;
1296;SDS011;641;48.492;9.184;2022-11-21T04:45:12;6.37;;;0.47;;
1296;SDS011;641;48.492;9.184;2022-11-21T04:47:39;4.80;;;0.47;;
1296;SDS011;641;48.492;9.184;2022-11-21T04:50:07;5.40;;;0.60;;
1296;SDS011;641;48.492;9.184;2022-11-21T04:52:34;4.67;;;0.33;;
1296;SDS011;641;48.492;9.184;2022-11-21T04:55:00;4.90;;;0.40;;
1296;SDS011;641;48.492;9.184;2022-11-21T04:57:26;5.27;;;0.87;;
1296;SDS011;641;48.492;9.184;2022-11-21T04:59:53;5.37;;;0.40;;
1296;SDS011;641;48.492;9.184;2022-11-21T05:02:19;4.80;;;0.43;;
1296;SDS011;641;48.492;9.184;2022-11-21T05:04:44;5.63;;;0.33;;
1296;SDS011;641;48.492;9.184;2022-11-21T05:07:10;5.10;;;0.40;;
1296;SDS011;641;48.492;9.184;2022-11-21T05:09:36;5.10;;;0.40;;
1296;SDS011;641;48.492;9.184;2022-11-21T05:12:02;5.20;;;0.30;;
1296;SDS011;641;48.492;9.184;2022-11-21T05:14:46;4.70;;;0.30;;
1296;SDS011;641;48.492;9.184;2022-11-21T05:17:12;4.80;;;0.30;;
1296;SDS011;641;48.492;9.184;2022-11-21T05:19:37;4.80;;;0.50;;
1296;SDS011;641;48.492;9.184;2022-11-21T05:22:03;4.80;;;0.30;;
1296;SDS011;641;48.492;9.184;2022-11-21T05:24:29;4.73;;;0.30;;
1296;SDS011;641;48.492;9.184;2022-11-21T05:26:54;5.20;;;0.40;;
1296;SDS011;641;48.492;9.184;2022-11-21T05:29:20;6.13;;;0.40;;
1296;SDS011;641;48.492;9.184;2022-11-21T05:31:46;4.67;;;0.30;;
1296;SDS011;641;48.492;9.184;2022-11-21T05:34:11;4.80;;;0.40;;
1296;SDS011;641;48.492;9.184;2022-11-21T05:36:37;5.00;;;0.47;;
1296;SDS011;641;48.492;9.184;2022-11-21T05:39:02;5.30;;;0.60;;
1296;SDS011;641;48.492;9.184;2022-11-21T05:41:28;4.67;;;0.30;;
1296;SDS011;641;48.492;9.184;2022-11-21T05:43:54;4.67;;;0.30;;
1296;SDS011;641;48.492;9.184;2022-11-21T05:46:20;5.10;;;0.30;;
1296;SDS011;641;48.492;9.184;2022-11-21T05:48:48;4.70;;;0.30;;
1296;SDS011;641;48.492;9.184;2022-11-21T05:51:16;5.30;;;0.40;;
1296;SDS011;641;48.492;9.184;2022-11-21T05:53:42;4.80;;;0.40;;
1296;SDS011;641;48.492;9.184;2022-11-21T05:56:10;5.00;;;0.30;;
1296;SDS011;641;48.492;9.184;2022-11-21T05:58:36;4.83;;;0.40;;
1296;SDS011;641;48.492;9.184;2022-11-21T06:01:02;4.63;;;0.30;;
1296;SDS011;641;48.492;9.184;2022-11-21T06:03:30;5.00;;;0.40;;
1296;SDS011;641;48.492;9.184;2022-11-21T06:06:03;6.80;;;0.50;;
1296;SDS011;641;48.492;9.184;2022-11-21T06:08:37;4.90;;;0.60;;
1296;SDS011;641;48.492;9.184;2022-11-21T06:11:10;5.67;;;0.70;;
1296;SDS011;641;48.492;9.184;2022-11-21T06:13:37;5.63;;;0.73;;
1296;SDS011;641;48.492;9.184;2022-11-21T06:18:33;4.80;;;0.40;;
1296;SDS011;641;48.492;9.184;2022-11-21T06:21:00;5.30;;;0.57;;
1296;SDS011;641;48.492;9.184;2022-11-21T06:23:27;5.37;;;0.60;;
1296;SDS011;641;48.492;9.184;2022-11-21T06:25:56;5.10;;;0.40;;
1296;SDS011;641;48.492;9.184;2022-11-21T06:28:31;5.83;;;0.90;;
1296;SDS011;641;48.492;9.184;2022-11-21T06:31:02;5.77;;;0.70;;
1296;SDS011;641;48.492;9.184;2022-11-21T06:33:33;6.80;;;0.60;;
1296;SDS011;641;48.492;9.184;2022-11-21T06:36:03;7.70;;;0.60;;
1296;SDS011;641;48.492;9.184;2022-11-21T06:38:30;5.40;;;0.47;;
1296;SDS011;641;48.492;9.184;2022-11-21T06:40:56;5.20;;;0.43;;
1296;SDS011;641;48.492;9.184;2022-11-21T06:43:22;5.30;;;0.60;;
1296;SDS011;641;48.492;9.184;2022-11-21T06:45:48;5.07;;;0.73;;
1296;SDS011;641;48.492;9.184;2022-11-21T06:48:13;6.57;;;0.60;;
1296;SDS011;641;48.492;9.184;2022-11-21T06:50:39;5.83;;;0.77;;
1296;SDS011;641;48.492;9.184;2022-11-21T06:53:05;5.30;;;0.83;;
1296;SDS011;641;48.492;9.184;2022-11-21T06:55:31;6.27;;;0.60;;
1296;SDS011;641;48.492;9.184;2022-11-21T06:57:57;9.03;;;0.70;;
1296;SDS011;641;48.492;9.184;2022-11-21T07:00:26;6.13;;;0.73;;
1296;SDS011;641;48.492;9.184;2022-11-21T07:02:53;6.50;;;0.90;;
1296;SDS011;641;48.492;9.184;2022-11-21T07:05:23;11.30;;;2.33;;
1296;SDS011;641;48.492;9.184;2022-11-21T07:07:49;7.93;;;1.07;;
1296;SDS011;641;48.492;9.184;2022-11-21T07:10:14;9.07;;;1.23;;
1296;SDS011;641;48.492;9.184;2022-11-21T07:12:40;5.73;;;0.60;;
1296;SDS011;641;48.492;9.184;2022-11-21T07:15:24;5.60;;;0.80;;
1296;SDS011;641;48.492;9.184;2022-11-21T07:17:49;5.67;;;0.77;;
1296;SDS011;641;48.492;9.184;2022-11-21T07:20:15;9.87;;;1.23;;
1296;SDS011;641;48.492;9.184;2022-11-21T07:22:41;6.50;;;1.17;;
1296;SDS011;641;48.492;9.184;2022-11-21T07:25:06;5.60;;;0.70;;
1296;SDS011;641;48.492;9.184;2022-11-21T07:27:32;7.83;;;0.90;;
1296;SDS011;641;48.492;9.184;2022-11-21T07:29:58;7.23;;;1.67;;
1296;SDS011;641;48.492;9.184;2022-11-21T07:32:24;7.30;;;1.13;;
1296;SDS011;641;48.492;9.184;2022-11-21T07:34:50;8.80;;;1.20;;
1296;SDS011;641;48.492;9.184;2022-11-21T07:37:15;7.57;;;1.10;;
1296;SDS011;641;48.492;9.184;2022-11-21T07:39:41;6.57;;;0.80;;
1296;SDS011;641;48.492;9.184;2022-11-21T07:42:07;11.60;;;1.70;;
1296;SDS011;641;48.492;9.184;2022-11-21T07:44:32;9.60;;;1.40;;
1296;SDS011;641;48.492;9.184;2022-11-21T07:46:58;14.03;;;1.83;;
1296;SDS011;641;48.492;9.184;2022-11-21T07:49:23;7.50;;;1.07;;
1296;SDS011;641;48.492;9.184;2022-11-21T07:51:49;11.73;;;1.30;;
1296;SDS011;641;48.492;9.184;2022-11-21T07:54:15;7.63;;;1.33;;
1296;SDS011;641;48.492;9.184;2022-11-21T07:56:40;7.93;;;1.67;;
1296;SDS011;641;48.492;9.184;2022-11-21T07:59:06;6.50;;;1.03;;
1296;SDS011;641;48.492;9.184;2022-11-21T08:01:32;15.20;;;1.20;;
1296;SDS011;641;48.492;9.184;2022-11-21T08:03:57;10.13;;;1.50;;
1296;SDS011;641;48.492;9.184;2022-11-21T08:06:23;5.57;;;1.00;;
1296;SDS011;641;48.492;9.184;2022-11-21T08:08:52;8.60;;;1.23;;
1296;SDS011;641;48.492;9.184;2022-11-21T08:11:18;7.87;;;1.10;;
1296;SDS011;641;48.492;9.184;2022-11-21T08:13:44;5.57;;;1.10;;
1296;SDS011;641;48.492;9.184;2022-11-21T08:16:09;9.87;;;1.90;;
1296;SDS011;641;48.492;9.184;2022-11-21T08:18:35;7.70;;;1.30;;
1296;SDS011;641;48.492;9.184;2022-11-21T08:21:01;6.33;;;0.97;;
1296;SDS011;641;48.492;9.184;2022-11-21T09:35:53;8.70;;;1.23;;
1296;SDS011;641;48.492;9.184;2022-11-21T09:38:21;8.07;;;1.27;;
1296;SDS011;641;48.492;9.184;2022-11-21T09:40:47;6.93;;;0.80;;
1296;SDS011;641;48.492;9.184;2022-11-21T09:46:09;9.73;;;0.83;;
1296;SDS011;641;48.492;9.184;2022-11-21T09:51:22;6.27;;;0.83;;
1296;SDS011;641;48.492;9.184;2022-11-21T09:53:54;12.10;;;1.30;;
1296;SDS011;641;48.492;9.184;2022-11-21T09:56:37;8.30;;;1.20;;
1296;SDS011;641;48.492;9.184;2022-11-21T09:59:07;8.27;;;1.30;;
1296;SDS011;641;48.492;9.184;2022-11-21T10:01:43;6.30;;;1.30;;
1296;SDS011;641;48.492;9.184;2022-11-21T10:04:08;5.37;;;0.70;;
1296;SDS011;641;48.492;9.184;2022-11-21T10:06:42;7.47;;;1.00;;
1296;SDS011;641;48.492;9.184;2022-11-21T10:11:42;6.90;;;1.47;;
1296;SDS011;641;48.492;9.184;2022-11-21T10:18:06;7.53;;;1.40;;
1296;SDS011;641;48.492;9.184;2022-11-21T10:20:49;10.63;;;1.47;;
1296;SDS011;641;48.492;9.184;2022-11-21T10:26:39;7.00;;;1.10;;
1296;SDS011;641;48.492;9.184;2022-11-21T10:29:23;10.80;;;1.47;;
1296;SDS011;641;48.492;9.184;2022-11-21T10:32:26;8.07;;;1.50;;
1296;SDS011;641;48.492;9.184;2022-11-21T10:35:00;5.70;;;0.87;;
1296;SDS011;641;48.492;9.184;2022-11-21T10:37:48;6.43;;;1.20;;
1296;SDS011;641;48.492;9.184;2022-11-21T10:46:00;6.93;;;1.33;;
1296;SDS011;641;48.492;9.184;2022-11-21T10:48:25;7.00;;;1.00;;
1296;SDS011;641;48.492;9.184;2022-11-21T10:51:02;7.00;;;0.90;;
1296;SDS011;641;48.492;9.184;2022-11-21T10:53:42;7.40;;;1.30;;
1296;SDS011;641;48.492;9.184;2022-11-21T10:56:26;8.30;;;1.20;;
1296;SDS011;641;48.492;9.184;2022-11-21T10:58:53;9.20;;;1.17;;
1296;SDS011;641;48.492;9.184;2022-11-21T11:01:25;6.53;;;1.20;;
1296;SDS011;641;48.492;9.184;2022-11-21T11:06:38;8.00;;;1.20;;
1296;SDS011;641;48.492;9.184;2022-11-21T11:09:12;6.57;;;0.70;;
1296;SDS011;641;48.492;9.184;2022-11-21T11:11:52;7.97;;;1.10;;
1296;SDS011;641;48.492;9.184;2022-11-21T11:14:26;6.53;;;1.03;;
1296;SDS011;641;48.492;9.184;2022-11-21T11:16:56;9.07;;;2.27;;
1296;SDS011;641;48.492;9.184;2022-11-21T11:19:27;9.00;;;1.07;;
1296;SDS011;641;48.492;9.184;2022-11-21T11:21:53;8.60;;;1.10;;
1296;SDS011;641;48.492;9.184;2022-11-21T11:24:21;8.70;;;1.30;;
1296;SDS011;641;48.492;9.184;2022-11-21T11:26:52;7.33;;;1.10;;
1296;SDS011;641;48.492;9.184;2022-11-21T11:29:24;7.10;;;1.00;;
1296;SDS011;641;48.492;9.184;2022-11-21T11:31:55;8.87;;;1.10;;
1296;SDS011;641;48.492;9.184;2022-11-21T11:34:21;6.57;;;0.80;;
1296;SDS011;641;48.492;9.184;2022-11-21T11:37:09;6.50;;;0.70;;
1296;SDS011;641;48.492;9.184;2022-11-21T11:45:47;6.90;;;0.90;;
1296;SDS011;641;48.492;9.184;2022-11-21T11:48:40;6.40;;;1.10;;
1296;SDS011;641;48.492;9.184;2022-11-21T11:51:19;6.73;;;1.10;;
1296;SDS011;641;48.492;9.184;2022-11-21T11:53:48;13.80;;;3.00;;
1296;SDS011;641;48.492;9.184;2022-11-21T11:58:51;7.13;;;1.50;;
1296;SDS011;641;48.492;9.184;2022-11-21T12:04:23;9.00;;;1.13;;
1296;SDS011;641;48.492;9.184;2022-11-21T12:06:59;7.83;;;1.00;;
1296;SDS011;641;48.492;9.184;2022-11-21T12:09:51;8.80;;;1.27;;
1296;SDS011;641;48.492;9.184;2022-11-21T12:12:32;7.50;;;0.90;;
1296;SDS011;641;48.492;9.184;2022-11-21T12:17:53;8.43;;;1.27;;
1296;SDS011;641;48.492;9.184;2022-11-21T12:20:27;7.27;;;0.93;;
1296;SDS011;641;48.492;9.184;2022-11-21T12:22:58;8.40;;;1.40;;
1296;SDS011;641;48.492;9.184;2022-11-21T12:25:28;9.17;;;1.57;;
1296;SDS011;641;48.492;9.184;2022-11-21T12:28:01;9.27;;;1.30;;
1296;SDS011;641;48.492;9.184;2022-11-21T12:33:21;6.30;;;0.93;;
1296;SDS011;641;48.492;9.184;2022-11-21T12:36:09;6.83;;;1.30;;
1296;SDS011;641;48.492;9.184;2022-11-21T12:38:46;8.97;;;1.43;;
1296;SDS011;641;48.492;9.184;2022-11-21T12:44:21;8.40;;;1.07;;
1296;SDS011;641;48.492;9.184;2022-11-21T12:47:16;10.80;;;1.30;;
1296;SDS011;641;48.492;9.184;2022-11-21T12:53:25;7.33;;;1.27;;
1296;SDS011;641;48.492;9.184;2022-11-21T12:56:44;6.70;;;1.20;;
1296;SDS011;641;48.492;9.184;2022-11-21T12:59:45;8.70;;;1.23;;
1296;SDS011;641;48.492;9.184;2022-11-21T13:05:28;8.53;;;1.37;;
1296;SDS011;641;48.492;9.184;2022-11-21T13:08:13;7.73;;;1.40;;
1296;SDS011;641;48.492;9.184;2022-11-21T13:10:45;9.90;;;1.57;;
1296;SDS011;641;48.492;9.184;2022-11-21T13:13:39;8.57;;;1.30;;
1296;SDS011;641;48.492;9.184;2022-11-21T13:16:09;7.10;;;1.10;;
1296;SDS011;641;48.492;9.184;2022-11-21T13:18:42;9.93;;;1.27;;
1296;SDS011;641;48.492;9.184;2022-11-21T13:24:06;8.70;;;1.23;;
1296;SDS011;641;48.492;9.184;2022-11-21T13:29:13;7.50;;;1.33;;
1296;SDS011;641;48.492;9.184;2022-11-21T13:31:39;9.77;;;1.40;;
1296;SDS011;641;48.492;9.184;2022-11-21T13:34:47;7.27;;;1.30;;
1296;SDS011;641;48.492;9.184;2022-11-21T13:37:02;8.90;;;1.30;;
1296;SDS011;641;48.492;9.184;2022-11-21T13:39:29;8.27;;;1.23;;
1296;SDS011;641;48.492;9.184;2022-11-21T13:42:00;9.97;;;1.17;;
1296;SDS011;641;48.492;9.184;2022-11-21T13:44:47;8.07;;;0.97;;
1296;SDS011;641;48.492;9.184;2022-11-21T13:47:33;9.10;;;1.30;;
1296;SDS011;641;48.492;9.184;2022-11-21T13:50:19;9.60;;;1.23;;
1296;SDS011;641;48.492;9.184;2022-11-21T13:53:02;7.13;;;0.90;;
1296;SDS011;641;48.492;9.184;2022-11-21T13:55:47;7.70;;;1.47;;
1296;SDS011;641;48.492;9.184;2022-11-21T14:07:26;19.90;;;2.40;;
1296;SDS011;641;48.492;9.184;2022-11-21T14:09:55;7.37;;;0.97;;
1296;SDS011;641;48.492;9.184;2022-11-21T14:12:30;6.13;;;1.17;;
1296;SDS011;641;48.492;9.184;2022-11-21T14:20:27;6.10;;;1.10;;
1296;SDS011;641;48.492;9.184;2022-11-21T14:25:41;7.47;;;1.67;;
1296;SDS011;641;48.492;9.184;2022-11-21T14:28:28;8.97;;;1.30;;
1296;SDS011;641;48.492;9.184;2022-11-21T14:30:59;9.70;;;1.30;;
1296;SDS011;641;48.492;9.184;2022-11-21T14:36:01;7.80;;;1.40;;
1296;SDS011;641;48.492;9.184;2022-11-21T14:38:28;8.07;;;1.23;;
1296;SDS011;641;48.492;9.184;2022-11-21T14:46:28;7.60;;;1.40;;
1296;SDS011;641;48.492;9.184;2022-11-21T14:48:56;9.83;;;1.17;;
1296;SDS011;641;48.492;9.184;2022-11-21T14:51:36;10.63;;;1.70;;
1296;SDS011;641;48.492;9.184;2022-11-21T14:54:04;12.80;;;2.10;;
1296;SDS011;641;48.492;9.184;2022-11-21T14:56:36;9.13;;;1.20;;
1296;SDS011;641;48.492;9.184;2022-11-21T14:59:05;7.57;;;1.30;;
1296;SDS011;641;48.492;9.184;2022-11-21T15:01:40;7.70;;;1.33;;
1296;SDS011;641;48.492;9.184;2022-11-21T15:04:06;11.17;;;2.03;;
1296;SDS011;641;48.492;9.184;2022-11-21T15:06:42;21.70;;;7.70;;
1296;SDS011;641;48.492;9.184;2022-11-21T15:09:14;13.70;;;5.30;;
1296;SDS011;641;48.492;9.184;2022-11-21T15:16:52;7.90;;;2.40;;
1296;SDS011;641;48.492;9.184;2022-11-21T15:19:22;7.93;;;2.10;;
1296;SDS011;641;48.492;9.184;2022-11-21T15:21:54;12.60;;;3.63;;
1296;SDS011;641;48.492;9.184;2022-11-21T15:26:54;7.90;;;1.90;;
1296;SDS011;641;48.492;9.184;2022-11-21T15:29:21;13.03;;;2.97;;
1296;SDS011;641;48.492;9.184;2022-11-21T15:32:06;10.63;;;2.87;;
1296;SDS011;641;48.492;9.184;2022-11-21T15:34:33;13.77;;;3.17;;
1296;SDS011;641;48.492;9.184;2022-11-21T15:37:02;13.40;;;2.93;;
1296;SDS011;641;48.492;9.184;2022-11-21T15:39:32;11.67;;;2.73;;
1296;SDS011;641;48.492;9.184;2022-11-21T15:44:55;10.03;;;2.70;;
1296;SDS011;641;48.492;9.184;2022-11-21T15:47:41;11.90;;;2.87;;
1296;SDS011;641;48.492;9.184;2022-11-21T15:50:06;11.20;;;3.37;;
1296;SDS011;641;48.492;9.184;2022-11-21T15:52:42;11.80;;;2.53;;
1296;SDS011;641;48.492;9.184;2022-11-21T15:55:15;12.87;;;2.80;;
1296;SDS011;641;48.492;9.184;2022-11-21T15:57:55;11.33;;;3.20;;
1296;SDS011;641;48.492;9.184;2022-11-21T16:00:20;10.80;;;3.80;;
1296;SDS011;641;48.492;9.184;2022-11-21T16:02:46;8.93;;;3.00;;
1296;SDS011;641;48.492;9.184;2022-11-21T16:05:12;12.93;;;3.03;;
1296;SDS011;641;48.492;9.184;2022-11-21T16:07:39;13.33;;;4.20;;
1296;SDS011;641;48.492;9.184;2022-11-21T16:10:06;15.20;;;6.00;;
1296;SDS011;641;48.492;9.184;2022-11-21T16:12:32;11.27;;;3.30;;
1296;SDS011;641;48.492;9.184;2022-11-21T16:14:58;11.67;;;3.40;;
1296;SDS011;641;48.492;9.184;2022-11-21T16:17:23;10.10;;;2.90;;
1296;SDS011;641;48.492;9.184;2022-11-21T16:19:49;12.73;;;2.97;;
1296;SDS011;641;48.492;9.184;2022-11-21T16:22:15;10.03;;;3.37;;
1296;SDS011;641;48.492;9.184;2022-11-21T16:24:40;21.93;;;4.00;;
1296;SDS011;641;48.492;9.184;2022-11-21T16:27:06;10.80;;;3.23;;
1296;SDS011;641;48.492;9.184;2022-11-21T16:29:32;10.80;;;3.90;;
1296;SDS011;641;48.492;9.184;2022-11-21T16:31:57;9.70;;;3.43;;
1296;SDS011;641;48.492;9.184;2022-11-21T16:34:24;14.10;;;4.17;;
1296;SDS011;641;48.492;9.184;2022-11-21T16:36:51;11.10;;;3.40;;
1296;SDS011;641;48.492;9.184;2022-11-21T16:39:17;15.17;;;4.13;;
1296;SDS011;641;48.492;9.184;2022-11-21T16:41:42;9.40;;;2.63;;
1296;SDS011;641;48.492;9.184;2022-11-21T16:44:12;8.47;;;2.63;;
1296;SDS011;641;48.492;9.184;2022-11-21T16:46:42;9.30;;;2.60;;
1296;SDS011;641;48.492;9.184;2022-11-21T16:49:09;11.60;;;3.10;;
1296;SDS011;641;48.492;9.184;2022-11-21T16:51:35;12.70;;;3.23;;
1296;SDS011;641;48.492;9.184;2022-11-21T16:54:00;9.57;;;3.57;;
1296;SDS011;641;48.492;9.184;2022-11-21T16:56:26;12.00;;;3.50;;
1296;SDS011;641;48.492;9.184;2022-11-21T16:58:52;10.43;;;2.83;;
1296;SDS011;641;48.492;9.184;2022-11-21T17:01:19;8.50;;;2.80;;
1296;SDS011;641;48.492;9.184;2022-11-21T17:03:47;6.70;;;1.70;;
1296;SDS011;641;48.492;9.184;2022-11-21T17:06:14;9.20;;;1.77;;
1296;SDS011;641;48.492;9.184;2022-11-21T17:08:42;12.07;;;2.50;;
1296;SDS011;641;48.492;9.184;2022-11-21T17:11:15;12.00;;;1.93;;
1296;SDS011;641;48.492;9.184;2022-11-21T17:13:42;13.70;;;2.20;;
1296;SDS011;641;48.492;9.184;2022-11-21T17:16:10;9.10;;;1.90;;
1296;SDS011;641;48.492;9.184;2022-11-21T17:18:37;8.70;;;2.00;;
1296;SDS011;641;48.492;9.184;2022-11-21T17:21:04;9.10;;;2.20;;
1296;SDS011;641;48.492;9.184;2022-11-21T17:23:31;8.53;;;2.00;;
1296;SDS011;641;48.492;9.184;2022-11-21T17:26:05;8.00;;;2.00;;
1296;SDS011;641;48.492;9.184;2022-11-21T17:28:32;7.67;;;2.03;;
1296;SDS011;641;48.492;9.184;2022-11-21T17:30:58;9.03;;;2.07;;
1296;SDS011;641;48.492;9.184;2022-11-21T17:33:24;7.20;;;1.80;;
1296;SDS011;641;48.492;9.184;2022-11-21T17:35:50;9.90;;;2.07;;
1296;SDS011;641;48.492;9.184;2022-11-21T17:38:16;10.30;;;2.30;;
1296;SDS011;641;48.492;9.184;2022-11-21T17:40:41;10.40;;;2.20;;
1296;SDS011;641;48.492;9.184;2022-11-21T17:43:07;9.50;;;3.00;;
1296;SDS011;641;48.492;9.184;2022-11-21T17:45:33;10.30;;;1.73;;
1296;SDS011;641;48.492;9.184;2022-11-21T17:47:59;9.90;;;2.20;;
1296;SDS011;641;48.492;9.184;2022-11-21T17:50:25;12.20;;;2.37;;
1296;SDS011;641;48.492;9.184;2022-11-21T17:52:51;9.97;;;2.03;;
1296;SDS011;641;48.492;9.184;2022-11-21T17:55:16;10.10;;;1.70;;
1296;SDS011;641;48.492;9.184;2022-11-21T17:57:42;7.10;;;1.20;;
1296;SDS011;641;48.492;9.184;2022-11-21T18:00:08;9.17;;;2.10;;
1296;SDS011;641;48.492;9.184;2022-11-21T18:02:34;9.10;;;1.43;;
1296;SDS011;641;48.492;9.184;2022-11-21T18:05:00;9.70;;;1.90;;
1296;SDS011;641;48.492;9.184;2022-11-21T18:07:25;6.30;;;1.10;;
1296;SDS011;641;48.492;9.184;2022-11-21T18:09:51;16.83;;;1.90;;
1296;SDS011;641;48.492;9.184;2022-11-21T18:12:16;7.00;;;1.53;;
1296;SDS011;641;48.492;9.184;2022-11-21T18:14:42;11.73;;;4.00;;
1296;SDS011;641;48.492;9.184;2022-11-21T18:17:07;8.50;;;1.90;;
1296;SDS011;641;48.492;9.184;2022-11-21T18:19:33;10.13;;;2.10;;
1296;SDS011;641;48.492;9.184;2022-11-21T18:21:58;12.87;;;2.27;;
1296;SDS011;641;48.492;9.184;2022-11-21T18:24:24;9.20;;;2.60;;
1296;SDS011;641;48.492;9.184;2022-11-21T18:26:51;11.13;;;2.33;;
1296;SDS011;641;48.492;9.184;2022-11-21T18:29:17;8.90;;;1.90;;
1296;SDS011;641;48.492;9.184;2022-11-21T18:31:42;6.70;;;1.43;;
1296;SDS011;641;48.492;9.184;2022-11-21T18:34:08;10.47;;;2.17;;
1296;SDS011;641;48.492;9.184;2022-11-21T18:41:55;8.47;;;2.10;;
1296;SDS011;641;48.492;9.184;2022-11-21T18:44:38;11.23;;;2.10;;
1296;SDS011;641;48.492;9.184;2022-11-21T18:47:29;8.20;;;1.60;;
1296;SDS011;641;48.492;9.184;2022-11-21T18:52:52;6.93;;;1.40;;
1296;SDS011;641;48.492;9.184;2022-11-21T18:55:20;14.90;;;4.67;;
1296;SDS011;641;48.492;9.184;2022-11-21T18:57:47;8.70;;;1.50;;
1296;SDS011;641;48.492;9.184;2022-11-21T19:00:12;7.93;;;1.33;;
1296;SDS011;641;48.492;9.184;2022-11-21T19:02:41;11.87;;;1.60;;
1296;SDS011;641;48.492;9.184;2022-11-21T19:05:06;9.43;;;1.30;;
1296;SDS011;641;48.492;9.184;2022-11-21T19:07:35;7.87;;;1.40;;
1296;SDS011;641;48.492;9.184;2022-11-21T19:10:01;6.17;;;1.07;;
1296;SDS011;641;48.492;9.184;2022-11-21T19:12:32;9.07;;;1.70;;
1296;SDS011;641;48.492;9.184;2022-11-21T19:15:06;6.50;;;1.60;;
1296;SDS011;641;48.492;9.184;2022-11-21T19:17:32;9.10;;;1.73;;
1296;SDS011;641;48.492;9.184;2022-11-21T19:19:58;8.30;;;2.60;;
1296;SDS011;641;48.492;9.184;2022-11-21T19:22:23;13.63;;;3.10;;
1296;SDS011;641;48.492;9.184;2022-11-21T19:24:59;8.30;;;1.60;;
1296;SDS011;641;48.492;9.184;2022-11-21T19:27:24;8.93;;;2.40;;
1296;SDS011;641;48.492;9.184;2022-11-21T19:29:50;9.87;;;1.97;;
1296;SDS011;641;48.492;9.184;2022-11-21T19:32:19;12.70;;;2.50;;
1296;SDS011;641;48.492;9.184;2022-11-21T19:34:45;10.40;;;2.53;;
1296;SDS011;641;48.492;9.184;2022-11-21T19:37:10;11.20;;;3.67;;
1296;SDS011;641;48.492;9.184;2022-11-21T19:39:36;8.33;;;2.40;;
1296;SDS011;641;48.492;9.184;2022-11-21T19:42:02;8.50;;;2.30;;
1296;SDS011;641;48.492;9.184;2022-11-21T19:44:27;9.33;;;1.93;;
1296;SDS011;641;48.492;9.184;2022-11-21T19:46:53;9.27;;;1.90;;
1296;SDS011;641;48.492;9.184;2022-11-21T19:49:19;11.17;;;2.07;;
1296;SDS011;641;48.492;9.184;2022-11-21T19:51:44;8.87;;;2.10;;
1296;SDS011;641;48.492;9.184;2022-11-21T19:54:11;9.30;;;1.53;;
1296;SDS011;641;48.492;9.184;2022-11-21T19:56:37;6.63;;;1.90;;
1296;SDS011;641;48.492;9.184;2022-11-21T19:59:03;10.10;;;2.17;;